sensor_id;sensor_type;location;lat;lon;timestamp;P1;durP1;ratioP1;P2;durP2;ratioP2
14982;SDS011;7587;51.494;11.930;2022-08-01T00:02:14;5.18;;;4.78;;
14982;SDS011;7587;51.494;11.930;2022-08-01T00:04:41;5.63;;;5.13;;
14982;SDS011;7587;51.494;11.930;2022-08-01T00:07:07;5.47;;;4.53;;
14982;SDS011;7587;51.494;11.930;2022-08-01T00:09:33;5.63;;;4.55;;
14982;SDS011;7587;51.494;11.930;2022-08-01T00:12:00;5.05;;;4.55;;
14982;SDS011;7587;51.494;11.930;2022-08-01T00:14:27;5.20;;;4.80;;
14982;SDS011;7587;51.494;11.930;2022-08-01T00:16:53;6.20;;;4.65;;
14982;SDS011;7587;51.494;11.930;2022-08-01T00:19:21;5.88;;;4.50;;
14982;SDS011;7587;51.494;11.930;2022-08-01T00:21:47;5.47;;;5.03;;
14982;SDS011;7587;51.494;11.930;2022-08-01T00:24:13;6.30;;;4.97;;
14982;SDS011;7587;51.494;11.930;2022-08-01T00:26:45;10.38;;;4.80;;
14982;SDS011;7587;51.494;11.930;2022-08-01T00:29:12;5.22;;;4.72;;
14982;SDS011;7587;51.494;11.930;2022-08-01T00:31:38;7.32;;;5.57;;
14982;SDS011;7587;51.494;11.930;2022-08-01T00:34:04;4.95;;;4.57;;
14982;SDS011;7587;51.494;11.930;2022-08-01T00:36:32;6.10;;;4.28;;
14982;SDS011;7587;51.494;11.930;2022-08-01T00:38:58;4.85;;;4.45;;
14982;SDS011;7587;51.494;11.930;2022-08-01T00:41:26;5.05;;;4.65;;
14982;SDS011;7587;51.494;11.930;2022-08-01T00:43:52;5.10;;;4.45;;
14982;SDS011;7587;51.494;11.930;2022-08-01T00:46:19;4.45;;;4.15;;
14982;SDS011;7587;51.494;11.930;2022-08-01T00:48:45;5.30;;;4.65;;
14982;SDS011;7587;51.494;11.930;2022-08-01T00:51:12;4.80;;;4.32;;
14982;SDS011;7587;51.494;11.930;2022-08-01T00:53:40;5.40;;;4.07;;
14982;SDS011;7587;51.494;11.930;2022-08-01T00:56:06;4.55;;;4.10;;
14982;SDS011;7587;51.494;11.930;2022-08-01T00:58:33;6.10;;;4.30;;
14982;SDS011;7587;51.494;11.930;2022-08-01T01:00:59;4.57;;;4.15;;
14982;SDS011;7587;51.494;11.930;2022-08-01T01:03:25;4.95;;;4.45;;
14982;SDS011;7587;51.494;11.930;2022-08-01T01:05:54;4.40;;;4.00;;
14982;SDS011;7587;51.494;11.930;2022-08-01T01:08:24;4.93;;;3.83;;
14982;SDS011;7587;51.494;11.930;2022-08-01T01:10:54;4.60;;;4.00;;
14982;SDS011;7587;51.494;11.930;2022-08-01T01:13:23;4.22;;;3.92;;
14982;SDS011;7587;51.494;11.930;2022-08-01T01:15:51;4.68;;;4.10;;
14982;SDS011;7587;51.494;11.930;2022-08-01T01:18:23;4.40;;;4.00;;
14982;SDS011;7587;51.494;11.930;2022-08-01T01:20:52;4.40;;;3.97;;
14982;SDS011;7587;51.494;11.930;2022-08-01T01:26:20;4.28;;;3.97;;
14982;SDS011;7587;51.494;11.930;2022-08-01T01:29:03;4.28;;;3.88;;
14982;SDS011;7587;51.494;11.930;2022-08-01T01:31:32;5.45;;;4.35;;
14982;SDS011;7587;51.494;11.930;2022-08-01T01:34:00;4.28;;;3.97;;
14982;SDS011;7587;51.494;11.930;2022-08-01T01:36:27;5.28;;;4.10;;
14982;SDS011;7587;51.494;11.930;2022-08-01T01:38:55;4.05;;;3.75;;
14982;SDS011;7587;51.494;11.930;2022-08-01T01:41:22;6.03;;;3.80;;
14982;SDS011;7587;51.494;11.930;2022-08-01T01:43:49;4.72;;;4.13;;
14982;SDS011;7587;51.494;11.930;2022-08-01T01:46:19;4.38;;;4.03;;
14982;SDS011;7587;51.494;11.930;2022-08-01T01:48:53;4.13;;;3.83;;
14982;SDS011;7587;51.494;11.930;2022-08-01T01:51:20;4.10;;;3.80;;
14982;SDS011;7587;51.494;11.930;2022-08-01T01:53:47;5.95;;;3.95;;
14982;SDS011;7587;51.494;11.930;2022-08-01T01:56:14;6.43;;;4.28;;
14982;SDS011;7587;51.494;11.930;2022-08-01T01:58:42;4.03;;;3.72;;
14982;SDS011;7587;51.494;11.930;2022-08-01T02:01:09;4.53;;;4.07;;
14982;SDS011;7587;51.494;11.930;2022-08-01T02:03:38;4.63;;;4.20;;
14982;SDS011;7587;51.494;11.930;2022-08-01T02:06:06;5.32;;;3.70;;
14982;SDS011;7587;51.494;11.930;2022-08-01T02:08:32;4.15;;;3.85;;
14982;SDS011;7587;51.494;11.930;2022-08-01T02:11:00;4.13;;;3.70;;
14982;SDS011;7587;51.494;11.930;2022-08-01T02:13:46;4.38;;;3.97;;
14982;SDS011;7587;51.494;11.930;2022-08-01T02:16:13;3.72;;;3.50;;
14982;SDS011;7587;51.494;11.930;2022-08-01T02:18:43;4.10;;;3.70;;
14982;SDS011;7587;51.494;11.930;2022-08-01T02:21:10;5.03;;;3.88;;
14982;SDS011;7587;51.494;11.930;2022-08-01T02:23:38;4.25;;;3.70;;
14982;SDS011;7587;51.494;11.930;2022-08-01T02:26:07;4.45;;;3.75;;
14982;SDS011;7587;51.494;11.930;2022-08-01T02:28:36;3.70;;;3.40;;
14982;SDS011;7587;51.494;11.930;2022-08-01T02:31:04;3.60;;;3.40;;
14982;SDS011;7587;51.494;11.930;2022-08-01T02:33:33;4.57;;;3.70;;
14982;SDS011;7587;51.494;11.930;2022-08-01T02:36:02;4.35;;;3.95;;
14982;SDS011;7587;51.494;11.930;2022-08-01T02:38:30;4.47;;;4.18;;
14982;SDS011;7587;51.494;11.930;2022-08-01T02:40:57;4.28;;;3.88;;
14982;SDS011;7587;51.494;11.930;2022-08-01T02:43:24;3.92;;;3.47;;
14982;SDS011;7587;51.494;11.930;2022-08-01T02:45:52;4.00;;;3.70;;
14982;SDS011;7587;51.494;11.930;2022-08-01T02:48:19;4.45;;;3.55;;
14982;SDS011;7587;51.494;11.930;2022-08-01T02:50:47;4.38;;;3.38;;
14982;SDS011;7587;51.494;11.930;2022-08-01T02:53:16;4.35;;;3.38;;
14982;SDS011;7587;51.494;11.930;2022-08-01T02:55:43;3.97;;;3.60;;
14982;SDS011;7587;51.494;11.930;2022-08-01T02:58:12;3.72;;;3.42;;
14982;SDS011;7587;51.494;11.930;2022-08-01T03:00:40;3.28;;;3.08;;
14982;SDS011;7587;51.494;11.930;2022-08-01T03:03:07;3.20;;;3.00;;
14982;SDS011;7587;51.494;11.930;2022-08-01T03:05:34;3.70;;;3.40;;
14982;SDS011;7587;51.494;11.930;2022-08-01T03:08:01;3.55;;;3.22;;
14982;SDS011;7587;51.494;11.930;2022-08-01T03:10:29;3.35;;;3.05;;
14982;SDS011;7587;51.494;11.930;2022-08-01T03:12:57;4.70;;;3.20;;
14982;SDS011;7587;51.494;11.930;2022-08-01T03:15:25;3.83;;;3.47;;
14982;SDS011;7587;51.494;11.930;2022-08-01T03:17:52;3.42;;;2.97;;
14982;SDS011;7587;51.494;11.930;2022-08-01T03:20:20;3.47;;;3.17;;
14982;SDS011;7587;51.494;11.930;2022-08-01T03:22:48;3.22;;;2.92;;
14982;SDS011;7587;51.494;11.930;2022-08-01T03:25:16;3.83;;;2.97;;
14982;SDS011;7587;51.494;11.930;2022-08-01T03:27:45;3.00;;;2.80;;
14982;SDS011;7587;51.494;11.930;2022-08-01T03:30:13;3.00;;;2.80;;
14982;SDS011;7587;51.494;11.930;2022-08-01T03:32:41;2.85;;;2.65;;
14982;SDS011;7587;51.494;11.930;2022-08-01T03:35:07;4.03;;;2.60;;
14982;SDS011;7587;51.494;11.930;2022-08-01T03:37:34;4.28;;;2.90;;
14982;SDS011;7587;51.494;11.930;2022-08-01T03:40:02;2.97;;;2.65;;
14982;SDS011;7587;51.494;11.930;2022-08-01T03:42:31;3.10;;;2.80;;
14982;SDS011;7587;51.494;11.930;2022-08-01T03:45:02;2.92;;;2.72;;
14982;SDS011;7587;51.494;11.930;2022-08-01T03:47:29;4.28;;;2.53;;
14982;SDS011;7587;51.494;11.930;2022-08-01T03:49:56;3.28;;;2.40;;
14982;SDS011;7587;51.494;11.930;2022-08-01T03:52:24;3.33;;;2.53;;
14982;SDS011;7587;51.494;11.930;2022-08-01T03:54:50;2.88;;;2.53;;
14982;SDS011;7587;51.494;11.930;2022-08-01T03:57:19;3.00;;;2.67;;
14982;SDS011;7587;51.494;11.930;2022-08-01T03:59:46;2.85;;;2.60;;
14982;SDS011;7587;51.494;11.930;2022-08-01T04:02:14;3.40;;;2.55;;
14982;SDS011;7587;51.494;11.930;2022-08-01T04:04:41;4.25;;;2.28;;
14982;SDS011;7587;51.494;11.930;2022-08-01T04:07:20;2.85;;;2.60;;
14982;SDS011;7587;51.494;11.930;2022-08-01T04:09:46;2.60;;;2.40;;
14982;SDS011;7587;51.494;11.930;2022-08-01T04:12:13;2.83;;;2.50;;
14982;SDS011;7587;51.494;11.930;2022-08-01T04:14:39;2.85;;;2.60;;
14982;SDS011;7587;51.494;11.930;2022-08-01T04:17:06;2.72;;;2.47;;
14982;SDS011;7587;51.494;11.930;2022-08-01T04:19:33;2.55;;;2.35;;
14982;SDS011;7587;51.494;11.930;2022-08-01T04:22:00;2.30;;;2.20;;
14982;SDS011;7587;51.494;11.930;2022-08-01T04:24:27;2.58;;;2.38;;
14982;SDS011;7587;51.494;11.930;2022-08-01T04:26:55;2.38;;;2.28;;
14982;SDS011;7587;51.494;11.930;2022-08-01T04:29:23;2.00;;;1.90;;
14982;SDS011;7587;51.494;11.930;2022-08-01T04:31:50;3.03;;;2.72;;
14982;SDS011;7587;51.494;11.930;2022-08-01T04:34:20;2.40;;;2.20;;
14982;SDS011;7587;51.494;11.930;2022-08-01T04:36:48;2.53;;;2.30;;
14982;SDS011;7587;51.494;11.930;2022-08-01T04:39:16;2.78;;;2.38;;
14982;SDS011;7587;51.494;11.930;2022-08-01T04:41:44;2.72;;;2.50;;
14982;SDS011;7587;51.494;11.930;2022-08-01T04:44:11;2.50;;;2.30;;
14982;SDS011;7587;51.494;11.930;2022-08-01T04:46:38;2.42;;;2.22;;
14982;SDS011;7587;51.494;11.930;2022-08-01T04:49:05;2.88;;;2.25;;
14982;SDS011;7587;51.494;11.930;2022-08-01T04:51:31;3.30;;;2.38;;
14982;SDS011;7587;51.494;11.930;2022-08-01T04:53:59;3.88;;;2.25;;
14982;SDS011;7587;51.494;11.930;2022-08-01T04:56:26;2.25;;;2.15;;
14982;SDS011;7587;51.494;11.930;2022-08-01T04:58:52;2.58;;;2.38;;
14982;SDS011;7587;51.494;11.930;2022-08-01T05:01:32;3.35;;;1.80;;
14982;SDS011;7587;51.494;11.930;2022-08-01T05:03:59;2.08;;;1.98;;
14982;SDS011;7587;51.494;11.930;2022-08-01T05:06:25;2.70;;;2.45;;
14982;SDS011;7587;51.494;11.930;2022-08-01T05:08:51;2.00;;;1.90;;
14982;SDS011;7587;51.494;11.930;2022-08-01T05:11:19;1.88;;;1.77;;
14982;SDS011;7587;51.494;11.930;2022-08-01T05:13:47;2.35;;;2.10;;
14982;SDS011;7587;51.494;11.930;2022-08-01T05:16:13;3.58;;;2.00;;
14982;SDS011;7587;51.494;11.930;2022-08-01T05:18:40;2.70;;;2.42;;
14982;SDS011;7587;51.494;11.930;2022-08-01T05:21:06;2.10;;;2.00;;
14982;SDS011;7587;51.494;11.930;2022-08-01T05:23:32;2.08;;;1.98;;
14982;SDS011;7587;51.494;11.930;2022-08-01T05:25:59;3.00;;;1.80;;
14982;SDS011;7587;51.494;11.930;2022-08-01T05:28:26;2.15;;;1.92;;
14982;SDS011;7587;51.494;11.930;2022-08-01T05:30:53;2.35;;;2.15;;
14982;SDS011;7587;51.494;11.930;2022-08-01T05:33:21;1.95;;;1.85;;
14982;SDS011;7587;51.494;11.930;2022-08-01T05:35:47;1.98;;;1.88;;
14982;SDS011;7587;51.494;11.930;2022-08-01T05:38:14;1.80;;;1.70;;
14982;SDS011;7587;51.494;11.930;2022-08-01T05:40:41;1.98;;;1.77;;
14982;SDS011;7587;51.494;11.930;2022-08-01T05:43:07;2.50;;;1.60;;
14982;SDS011;7587;51.494;11.930;2022-08-01T05:45:35;1.90;;;1.80;;
14982;SDS011;7587;51.494;11.930;2022-08-01T05:48:06;4.32;;;1.52;;
14982;SDS011;7587;51.494;11.930;2022-08-01T05:50:33;2.03;;;1.90;;
14982;SDS011;7587;51.494;11.930;2022-08-01T05:52:59;2.95;;;1.65;;
14982;SDS011;7587;51.494;11.930;2022-08-01T05:55:25;1.77;;;1.50;;
14982;SDS011;7587;51.494;11.930;2022-08-01T05:57:52;1.45;;;1.35;;
14982;SDS011;7587;51.494;11.930;2022-08-01T06:00:18;1.33;;;1.23;;
14982;SDS011;7587;51.494;11.930;2022-08-01T06:02:46;1.50;;;1.27;;
14982;SDS011;7587;51.494;11.930;2022-08-01T06:05:12;2.33;;;1.30;;
14982;SDS011;7587;51.494;11.930;2022-08-01T06:07:38;1.40;;;1.10;;
14982;SDS011;7587;51.494;11.930;2022-08-01T06:10:05;1.33;;;1.25;;
14982;SDS011;7587;51.494;11.930;2022-08-01T06:12:34;1.60;;;1.17;;
14982;SDS011;7587;51.494;11.930;2022-08-01T06:15:00;1.35;;;1.25;;
14982;SDS011;7587;51.494;11.930;2022-08-01T06:17:27;1.15;;;1.10;;
14982;SDS011;7587;51.494;11.930;2022-08-01T06:19:55;1.50;;;1.00;;
14982;SDS011;7587;51.494;11.930;2022-08-01T06:22:25;1.40;;;1.00;;
14982;SDS011;7587;51.494;11.930;2022-08-01T06:24:52;4.25;;;1.30;;
14982;SDS011;7587;51.494;11.930;2022-08-01T06:27:18;3.00;;;1.27;;
14982;SDS011;7587;51.494;11.930;2022-08-01T06:29:45;2.25;;;1.13;;
14982;SDS011;7587;51.494;11.930;2022-08-01T06:32:13;1.27;;;1.00;;
14982;SDS011;7587;51.494;11.930;2022-08-01T06:34:40;3.10;;;1.20;;
14982;SDS011;7587;51.494;11.930;2022-08-01T06:37:07;0.98;;;0.90;;
14982;SDS011;7587;51.494;11.930;2022-08-01T06:39:34;1.08;;;0.82;;
14982;SDS011;7587;51.494;11.930;2022-08-01T06:42:00;1.10;;;1.00;;
14982;SDS011;7587;51.494;11.930;2022-08-01T06:44:26;0.80;;;0.80;;
14982;SDS011;7587;51.494;11.930;2022-08-01T06:46:52;1.77;;;0.90;;
14982;SDS011;7587;51.494;11.930;2022-08-01T06:49:19;0.93;;;0.88;;
14982;SDS011;7587;51.494;11.930;2022-08-01T06:51:45;0.95;;;0.95;;
14982;SDS011;7587;51.494;11.930;2022-08-01T06:54:13;1.88;;;1.05;;
14982;SDS011;7587;51.494;11.930;2022-08-01T06:56:41;1.27;;;0.98;;
14982;SDS011;7587;51.494;11.930;2022-08-01T06:59:07;1.33;;;1.10;;
14982;SDS011;7587;51.494;11.930;2022-08-01T07:01:33;1.45;;;0.90;;
14982;SDS011;7587;51.494;11.930;2022-08-01T07:03:59;1.40;;;1.10;;
14982;SDS011;7587;51.494;11.930;2022-08-01T07:06:26;1.13;;;1.00;;
14982;SDS011;7587;51.494;11.930;2022-08-01T07:08:52;0.80;;;0.80;;
14982;SDS011;7587;51.494;11.930;2022-08-01T07:11:20;2.08;;;0.80;;
14982;SDS011;7587;51.494;11.930;2022-08-01T07:13:46;1.05;;;0.98;;
14982;SDS011;7587;51.494;11.930;2022-08-01T07:16:13;1.08;;;0.80;;
14982;SDS011;7587;51.494;11.930;2022-08-01T07:18:39;0.70;;;0.70;;
14982;SDS011;7587;51.494;11.930;2022-08-01T07:21:06;0.60;;;0.60;;
14982;SDS011;7587;51.494;11.930;2022-08-01T07:23:32;0.68;;;0.68;;
14982;SDS011;7587;51.494;11.930;2022-08-01T07:25:59;3.33;;;1.30;;
14982;SDS011;7587;51.494;11.930;2022-08-01T07:28:27;1.08;;;0.95;;
14982;SDS011;7587;51.494;11.930;2022-08-01T07:30:54;4.20;;;1.20;;
14982;SDS011;7587;51.494;11.930;2022-08-01T07:33:20;1.55;;;0.77;;
14982;SDS011;7587;51.494;11.930;2022-08-01T07:35:47;1.05;;;0.60;;
14982;SDS011;7587;51.494;11.930;2022-08-01T07:38:13;1.85;;;0.80;;
14982;SDS011;7587;51.494;11.930;2022-08-01T07:40:41;1.08;;;0.73;;
14982;SDS011;7587;51.494;11.930;2022-08-01T07:43:08;1.20;;;0.60;;
14982;SDS011;7587;51.494;11.930;2022-08-01T07:45:35;0.50;;;0.50;;
14982;SDS011;7587;51.494;11.930;2022-08-01T07:48:02;4.32;;;0.88;;
14982;SDS011;7587;51.494;11.930;2022-08-01T07:50:29;0.65;;;0.50;;
14982;SDS011;7587;51.494;11.930;2022-08-01T07:52:55;0.38;;;0.38;;
14982;SDS011;7587;51.494;11.930;2022-08-01T07:55:22;1.75;;;0.45;;
14982;SDS011;7587;51.494;11.930;2022-08-01T07:57:48;0.50;;;0.50;;
14982;SDS011;7587;51.494;11.930;2022-08-01T08:00:14;0.40;;;0.40;;
14982;SDS011;7587;51.494;11.930;2022-08-01T08:02:43;1.42;;;0.60;;
14982;SDS011;7587;51.494;11.930;2022-08-01T08:05:10;2.38;;;0.60;;
14982;SDS011;7587;51.494;11.930;2022-08-01T08:07:36;0.50;;;0.50;;
14982;SDS011;7587;51.494;11.930;2022-08-01T08:10:03;0.45;;;0.45;;
14982;SDS011;7587;51.494;11.930;2022-08-01T08:12:29;0.40;;;0.30;;
14982;SDS011;7587;51.494;11.930;2022-08-01T08:14:55;0.60;;;0.60;;
14982;SDS011;7587;51.494;11.930;2022-08-01T08:17:30;2.22;;;0.20;;
14982;SDS011;7587;51.494;11.930;2022-08-01T08:20:07;0.50;;;0.20;;
14982;SDS011;7587;51.494;11.930;2022-08-01T08:22:34;1.40;;;0.20;;
14982;SDS011;7587;51.494;11.930;2022-08-01T08:25:00;1.10;;;0.20;;
14982;SDS011;7587;51.494;11.930;2022-08-01T08:27:27;0.28;;;0.20;;
14982;SDS011;7587;51.494;11.930;2022-08-01T08:29:53;0.90;;;0.30;;
14982;SDS011;7587;51.494;11.930;2022-08-01T08:32:19;0.20;;;0.20;;
14982;SDS011;7587;51.494;11.930;2022-08-01T08:34:46;1.48;;;0.20;;
14982;SDS011;7587;51.494;11.930;2022-08-01T08:37:13;0.40;;;0.40;;
14982;SDS011;7587;51.494;11.930;2022-08-01T08:39:40;0.90;;;0.43;;
14982;SDS011;7587;51.494;11.930;2022-08-01T08:42:07;0.40;;;0.40;;
14982;SDS011;7587;51.494;11.930;2022-08-01T08:44:33;0.63;;;0.43;;
14982;SDS011;7587;51.494;11.930;2022-08-01T08:47:00;1.95;;;0.77;;
14982;SDS011;7587;51.494;11.930;2022-08-01T08:49:27;2.60;;;0.70;;
14982;SDS011;7587;51.494;11.930;2022-08-01T08:51:54;0.30;;;0.30;;
14982;SDS011;7587;51.494;11.930;2022-08-01T08:54:25;0.63;;;0.50;;
14982;SDS011;7587;51.494;11.930;2022-08-01T08:56:51;0.40;;;0.40;;
14982;SDS011;7587;51.494;11.930;2022-08-01T08:59:18;0.52;;;0.50;;
14982;SDS011;7587;51.494;11.930;2022-08-01T09:01:45;0.47;;;0.47;;
14982;SDS011;7587;51.494;11.930;2022-08-01T09:04:12;0.40;;;0.40;;
14982;SDS011;7587;51.494;11.930;2022-08-01T09:06:39;2.30;;;0.70;;
14982;SDS011;7587;51.494;11.930;2022-08-01T09:09:06;0.60;;;0.60;;
14982;SDS011;7587;51.494;11.930;2022-08-01T09:11:34;0.70;;;0.70;;
14982;SDS011;7587;51.494;11.930;2022-08-01T09:14:02;0.80;;;0.80;;
14982;SDS011;7587;51.494;11.930;2022-08-01T09:16:29;0.90;;;0.90;;
14982;SDS011;7587;51.494;11.930;2022-08-01T09:19:04;1.00;;;0.93;;
14982;SDS011;7587;51.494;11.930;2022-08-01T09:21:32;0.90;;;0.90;;
14982;SDS011;7587;51.494;11.930;2022-08-01T09:23:58;1.05;;;1.05;;
14982;SDS011;7587;51.494;11.930;2022-08-01T09:26:28;1.10;;;1.10;;
14982;SDS011;7587;51.494;11.930;2022-08-01T09:28:56;1.65;;;1.42;;
14982;SDS011;7587;51.494;11.930;2022-08-01T09:31:22;1.50;;;1.40;;
14982;SDS011;7587;51.494;11.930;2022-08-01T09:33:53;1.58;;;1.50;;
14982;SDS011;7587;51.494;11.930;2022-08-01T09:36:20;1.40;;;1.30;;
14982;SDS011;7587;51.494;11.930;2022-08-01T09:38:55;1.27;;;1.20;;
14982;SDS011;7587;51.494;11.930;2022-08-01T09:41:29;1.52;;;1.42;;
14982;SDS011;7587;51.494;11.930;2022-08-01T09:43:57;1.60;;;1.50;;
14982;SDS011;7587;51.494;11.930;2022-08-01T09:46:24;2.75;;;1.50;;
14982;SDS011;7587;51.494;11.930;2022-08-01T09:48:57;1.75;;;1.65;;
14982;SDS011;7587;51.494;11.930;2022-08-01T09:51:27;1.90;;;1.80;;
14982;SDS011;7587;51.494;11.930;2022-08-01T09:53:53;1.50;;;1.40;;
14982;SDS011;7587;51.494;11.930;2022-08-01T09:56:20;1.80;;;1.70;;
14982;SDS011;7587;51.494;11.930;2022-08-01T09:58:54;2.28;;;1.83;;
14982;SDS011;7587;51.494;11.930;2022-08-01T10:01:22;2.20;;;2.10;;
14982;SDS011;7587;51.494;11.930;2022-08-01T10:04:03;2.58;;;2.03;;
14982;SDS011;7587;51.494;11.930;2022-08-01T10:06:30;2.13;;;2.03;;
14982;SDS011;7587;51.494;11.930;2022-08-01T10:08:58;3.42;;;1.75;;
14982;SDS011;7587;51.494;11.930;2022-08-01T10:11:24;1.77;;;1.67;;
14982;SDS011;7587;51.494;11.930;2022-08-01T10:13:50;1.50;;;1.48;;
14982;SDS011;7587;51.494;11.930;2022-08-01T10:16:17;1.52;;;1.42;;
14982;SDS011;7587;51.494;11.930;2022-08-01T10:18:45;1.25;;;1.20;;
14982;SDS011;7587;51.494;11.930;2022-08-01T10:21:12;1.10;;;1.10;;
14982;SDS011;7587;51.494;11.930;2022-08-01T10:23:39;0.70;;;0.70;;
14982;SDS011;7587;51.494;11.930;2022-08-01T10:26:08;0.85;;;0.52;;
14982;SDS011;7587;51.494;11.930;2022-08-01T10:28:36;0.35;;;0.32;;
14982;SDS011;7587;51.494;11.930;2022-08-01T10:31:03;0.63;;;0.30;;
14982;SDS011;7587;51.494;11.930;2022-08-01T10:33:30;0.95;;;0.60;;
14982;SDS011;7587;51.494;11.930;2022-08-01T10:35:58;1.00;;;1.00;;
14982;SDS011;7587;51.494;11.930;2022-08-01T10:38:24;1.20;;;1.10;;
14982;SDS011;7587;51.494;11.930;2022-08-01T10:40:50;1.20;;;1.10;;
14982;SDS011;7587;51.494;11.930;2022-08-01T10:43:18;1.60;;;0.50;;
14982;SDS011;7587;51.494;11.930;2022-08-01T10:45:44;0.60;;;0.60;;
14982;SDS011;7587;51.494;11.930;2022-08-01T10:48:12;0.70;;;0.70;;
14982;SDS011;7587;51.494;11.930;2022-08-01T10:50:41;1.50;;;0.77;;
14982;SDS011;7587;51.494;11.930;2022-08-01T10:53:14;0.60;;;0.60;;
14982;SDS011;7587;51.494;11.930;2022-08-01T10:55:45;0.80;;;0.80;;
14982;SDS011;7587;51.494;11.930;2022-08-01T10:58:11;0.50;;;0.50;;
14982;SDS011;7587;51.494;11.930;2022-08-01T11:00:37;0.50;;;0.50;;
14982;SDS011;7587;51.494;11.930;2022-08-01T11:03:03;2.00;;;0.77;;
14982;SDS011;7587;51.494;11.930;2022-08-01T11:05:31;0.90;;;0.90;;
14982;SDS011;7587;51.494;11.930;2022-08-01T11:07:58;1.33;;;1.20;;
14982;SDS011;7587;51.494;11.930;2022-08-01T11:10:30;0.75;;;0.75;;
14982;SDS011;7587;51.494;11.930;2022-08-01T11:12:59;0.63;;;0.63;;
14982;SDS011;7587;51.494;11.930;2022-08-01T11:15:28;1.83;;;1.20;;
14982;SDS011;7587;51.494;11.930;2022-08-01T11:17:55;1.50;;;1.40;;
14982;SDS011;7587;51.494;11.930;2022-08-01T11:20:23;2.03;;;1.20;;
14982;SDS011;7587;51.494;11.930;2022-08-01T11:29:10;0.90;;;0.90;;
14982;SDS011;7587;51.494;11.930;2022-08-01T11:31:34;0.93;;;0.73;;
14982;SDS011;7587;51.494;11.930;2022-08-01T11:34:01;0.75;;;0.75;;
14982;SDS011;7587;51.494;11.930;2022-08-01T11:36:27;0.80;;;0.80;;
14982;SDS011;7587;51.494;11.930;2022-08-01T11:41:39;0.60;;;0.60;;
14982;SDS011;7587;51.494;11.930;2022-08-01T11:44:06;2.47;;;0.60;;
14982;SDS011;7587;51.494;11.930;2022-08-01T11:46:48;1.23;;;0.75;;
14982;SDS011;7587;51.494;11.930;2022-08-01T11:49:31;1.00;;;0.90;;
14982;SDS011;7587;51.494;11.930;2022-08-01T11:52:03;0.90;;;0.90;;
14982;SDS011;7587;51.494;11.930;2022-08-01T11:54:30;0.88;;;0.88;;
14982;SDS011;7587;51.494;11.930;2022-08-01T11:56:57;0.75;;;0.75;;
14982;SDS011;7587;51.494;11.930;2022-08-01T11:59:24;0.82;;;0.82;;
14982;SDS011;7587;51.494;11.930;2022-08-01T12:01:52;1.17;;;1.08;;
14982;SDS011;7587;51.494;11.930;2022-08-01T12:04:19;0.80;;;0.80;;
14982;SDS011;7587;51.494;11.930;2022-08-01T12:06:48;0.90;;;0.90;;
14982;SDS011;7587;51.494;11.930;2022-08-01T12:09:23;1.23;;;0.77;;
14982;SDS011;7587;51.494;11.930;2022-08-01T12:12:00;1.95;;;1.00;;
14982;SDS011;7587;51.494;11.930;2022-08-01T12:14:27;1.00;;;1.00;;
14982;SDS011;7587;51.494;11.930;2022-08-01T12:16:55;3.85;;;0.90;;
14982;SDS011;7587;51.494;11.930;2022-08-01T12:19:22;0.95;;;0.93;;
14982;SDS011;7587;51.494;11.930;2022-08-01T12:22:05;3.92;;;1.20;;
14982;SDS011;7587;51.494;11.930;2022-08-01T12:24:31;1.00;;;1.00;;
14982;SDS011;7587;51.494;11.930;2022-08-01T12:26:58;0.90;;;0.90;;
14982;SDS011;7587;51.494;11.930;2022-08-01T12:29:30;0.88;;;0.88;;
14982;SDS011;7587;51.494;11.930;2022-08-01T12:31:58;0.80;;;0.80;;
14982;SDS011;7587;51.494;11.930;2022-08-01T12:34:25;0.52;;;0.52;;
14982;SDS011;7587;51.494;11.930;2022-08-01T12:36:54;0.40;;;0.40;;
14982;SDS011;7587;51.494;11.930;2022-08-01T12:39:21;0.50;;;0.50;;
14982;SDS011;7587;51.494;11.930;2022-08-01T12:41:48;1.60;;;0.50;;
14982;SDS011;7587;51.494;11.930;2022-08-01T12:44:15;2.60;;;0.40;;
14982;SDS011;7587;51.494;11.930;2022-08-01T12:46:42;0.57;;;0.57;;
14982;SDS011;7587;51.494;11.930;2022-08-01T12:49:10;0.50;;;0.50;;
14982;SDS011;7587;51.494;11.930;2022-08-01T12:51:36;0.60;;;0.60;;
14982;SDS011;7587;51.494;11.930;2022-08-01T12:54:03;0.47;;;0.47;;
14982;SDS011;7587;51.494;11.930;2022-08-01T12:56:33;0.40;;;0.40;;
14982;SDS011;7587;51.494;11.930;2022-08-01T12:58:59;2.80;;;0.65;;
14982;SDS011;7587;51.494;11.930;2022-08-01T13:01:26;1.02;;;0.73;;
14982;SDS011;7587;51.494;11.930;2022-08-01T13:03:59;0.80;;;0.80;;
14982;SDS011;7587;51.494;11.930;2022-08-01T13:06:27;0.73;;;0.73;;
14982;SDS011;7587;51.494;11.930;2022-08-01T13:08:55;0.90;;;0.90;;
14982;SDS011;7587;51.494;11.930;2022-08-01T13:11:30;0.80;;;0.80;;
14982;SDS011;7587;51.494;11.930;2022-08-01T13:13:56;1.05;;;0.80;;
14982;SDS011;7587;51.494;11.930;2022-08-01T13:16:23;0.95;;;0.95;;
14982;SDS011;7587;51.494;11.930;2022-08-01T13:18:51;1.05;;;0.70;;
14982;SDS011;7587;51.494;11.930;2022-08-01T13:21:18;1.15;;;0.90;;
14982;SDS011;7587;51.494;11.930;2022-08-01T13:26:41;0.70;;;0.70;;
14982;SDS011;7587;51.494;11.930;2022-08-01T13:29:08;0.90;;;0.90;;
14982;SDS011;7587;51.494;11.930;2022-08-01T13:31:34;1.38;;;0.90;;
14982;SDS011;7587;51.494;11.930;2022-08-01T13:34:01;1.15;;;1.05;;
14982;SDS011;7587;51.494;11.930;2022-08-01T13:36:27;1.00;;;1.00;;
14982;SDS011;7587;51.494;11.930;2022-08-01T13:38:55;0.98;;;0.98;;
14982;SDS011;7587;51.494;11.930;2022-08-01T13:41:38;1.58;;;1.48;;
14982;SDS011;7587;51.494;11.930;2022-08-01T13:44:06;1.60;;;1.50;;
14982;SDS011;7587;51.494;11.930;2022-08-01T13:46:34;2.25;;;1.50;;
14982;SDS011;7587;51.494;11.930;2022-08-01T13:49:00;1.85;;;1.48;;
14982;SDS011;7587;51.494;11.930;2022-08-01T13:51:26;1.80;;;1.70;;
14982;SDS011;7587;51.494;11.930;2022-08-01T13:53:53;1.90;;;1.80;;
14982;SDS011;7587;51.494;11.930;2022-08-01T13:56:19;1.70;;;1.60;;
14982;SDS011;7587;51.494;11.930;2022-08-01T13:58:45;2.00;;;1.90;;
14982;SDS011;7587;51.494;11.930;2022-08-01T14:01:13;2.78;;;2.08;;
14982;SDS011;7587;51.494;11.930;2022-08-01T14:03:40;2.00;;;1.90;;
14982;SDS011;7587;51.494;11.930;2022-08-01T14:06:06;2.53;;;2.33;;
14982;SDS011;7587;51.494;11.930;2022-08-01T14:08:33;2.33;;;2.10;;
14982;SDS011;7587;51.494;11.930;2022-08-01T14:11:01;2.40;;;2.30;;
14982;SDS011;7587;51.494;11.930;2022-08-01T14:13:27;2.10;;;2.00;;
14982;SDS011;7587;51.494;11.930;2022-08-01T14:15:53;1.23;;;1.23;;
14982;SDS011;7587;51.494;11.930;2022-08-01T14:18:21;1.83;;;1.08;;
14982;SDS011;7587;51.494;11.930;2022-08-01T14:20:48;1.40;;;1.30;;
14982;SDS011;7587;51.494;11.930;2022-08-01T14:23:14;0.90;;;0.90;;
14982;SDS011;7587;51.494;11.930;2022-08-01T14:25:40;0.90;;;0.90;;
14982;SDS011;7587;51.494;11.930;2022-08-01T14:28:08;1.98;;;0.75;;
14982;SDS011;7587;51.494;11.930;2022-08-01T14:30:35;1.95;;;0.75;;
14982;SDS011;7587;51.494;11.930;2022-08-01T14:33:01;0.80;;;0.80;;
14982;SDS011;7587;51.494;11.930;2022-08-01T14:35:29;0.60;;;0.60;;
14982;SDS011;7587;51.494;11.930;2022-08-01T14:37:55;0.60;;;0.60;;
14982;SDS011;7587;51.494;11.930;2022-08-01T14:40:22;2.83;;;0.70;;
14982;SDS011;7587;51.494;11.930;2022-08-01T14:42:48;0.70;;;0.70;;
14982;SDS011;7587;51.494;11.930;2022-08-01T14:45:15;0.85;;;0.85;;
14982;SDS011;7587;51.494;11.930;2022-08-01T14:47:41;0.60;;;0.60;;
14982;SDS011;7587;51.494;11.930;2022-08-01T14:50:09;0.95;;;0.82;;
14982;SDS011;7587;51.494;11.930;2022-08-01T14:52:37;1.58;;;0.80;;
14982;SDS011;7587;51.494;11.930;2022-08-01T14:55:05;0.80;;;0.75;;
14982;SDS011;7587;51.494;11.930;2022-08-01T14:57:31;1.17;;;1.17;;
14982;SDS011;7587;51.494;11.930;2022-08-01T14:59:57;0.73;;;0.73;;
14982;SDS011;7587;51.494;11.930;2022-08-01T15:02:24;0.90;;;0.90;;
14982;SDS011;7587;51.494;11.930;2022-08-01T15:04:50;1.20;;;1.10;;
14982;SDS011;7587;51.494;11.930;2022-08-01T15:07:17;1.48;;;1.05;;